Airfield :
LOGIN :

Register | Disclaimer

   EN    FR    IT 

 










Legend :    VFR   Marginal VFR   IFR   Intensive IFR   Very Intensive IFR
Visi :
Ceiling :
>= 8 km
>= 3000ft
5 to 8 km
1000 to 3000 ft
1500m to 5 km
500 to 1000 ft
800 to 1500m
200 to 500 ft
< 800m
< 200 ft
Symbols :   Thunderstorms  Fog  Heavy snow  Heavy precipitations  Wind > 20 kt
SIGMETs :     Misc.  Thunderstorms  Icing  Turbulence  Mountain Waves  Volcanic Ashes







- Airport Elevation : 458 ft
- Download approach charts


LFSI - St-Dizier

CURRENT METAR :
  • 201300Z AUTO 30010KT 9000 OVC009 13/10 Q1010

EXPIRED METARs :
  • 201230Z AUTO 30009KT 9000 OVC008 13/10 Q1010
  • 201200Z AUTO 30010KT 7000 BKN008 OVC012 13/10 Q1010
  • 201130Z AUTO 31008KT 290V350 9000 OVC008 13/10 Q1010
  • 201100Z AUTO 32008KT 9000 OVC009 13/11 Q1009
  • 201030Z AUTO 30009KT 7000 OVC007 13/11 Q1009

TAF TAF LFSI
Valid from the 20 at 09:00 until the 21 at 09:00 UTC


200800Z 2009/2109 30008KT 1500 BR BKN006
TEMPO 2009/2010 OVC003
BECMG 2010/2011 3000 BR BKN010
BECMG 2012/2014 7000 NSW BKN018
TEMPO 2012/2016 4000 SHRA BKN015TCU
TEMPO 2102/2105 4000 BR
No reported NOTAMs for that airfield.



MET'MAP, your aeronautical weather chart ! - Copyright ORBIFLY December 2007 - Disclaimer

ORBIFLY MET'MAP TEAM :

Programming & Development : Alexandra Zaïnal
Concept & Development : Baudouin d'Aumeries
Co-Development & Prog : Marc-Olivier Méhu
Technical & hardware support : Manuel Goepfert

Contact : metmap@orbifly.com




SOURCES & CREDITS :

   NOAA